sensor_id;sensor_type;location;lat;lon;timestamp;P1;durP1;ratioP1;P2;durP2;ratioP2
75261;SDS011;63859;51.064;4.580;2022-09-30T00:02:21;17.87;;;11.10;;
75261;SDS011;63859;51.064;4.580;2022-09-30T00:04:47;18.93;;;11.77;;
75261;SDS011;63859;51.064;4.580;2022-09-30T00:07:13;15.90;;;11.90;;
75261;SDS011;63859;51.064;4.580;2022-09-30T00:09:39;18.30;;;11.80;;
75261;SDS011;63859;51.064;4.580;2022-09-30T00:12:05;16.00;;;12.23;;
75261;SDS011;63859;51.064;4.580;2022-09-30T00:14:30;18.73;;;11.97;;
75261;SDS011;63859;51.064;4.580;2022-09-30T00:16:56;21.23;;;12.77;;
75261;SDS011;63859;51.064;4.580;2022-09-30T00:19:22;23.30;;;13.33;;
75261;SDS011;63859;51.064;4.580;2022-09-30T00:21:47;19.63;;;13.77;;
75261;SDS011;63859;51.064;4.580;2022-09-30T00:24:13;21.87;;;13.53;;
75261;SDS011;63859;51.064;4.580;2022-09-30T00:26:40;17.90;;;13.13;;
75261;SDS011;63859;51.064;4.580;2022-09-30T00:29:05;22.20;;;13.77;;
75261;SDS011;63859;51.064;4.580;2022-09-30T00:31:32;19.87;;;13.07;;
75261;SDS011;63859;51.064;4.580;2022-09-30T00:33:59;21.63;;;12.90;;
75261;SDS011;63859;51.064;4.580;2022-09-30T00:36:44;23.87;;;14.03;;
75261;SDS011;63859;51.064;4.580;2022-09-30T00:39:13;18.60;;;13.33;;
75261;SDS011;63859;51.064;4.580;2022-09-30T00:41:43;21.67;;;14.40;;
75261;SDS011;63859;51.064;4.580;2022-09-30T00:47:23;21.97;;;13.80;;
75261;SDS011;63859;51.064;4.580;2022-09-30T00:50:08;23.13;;;13.97;;
75261;SDS011;63859;51.064;4.580;2022-09-30T00:53:03;25.87;;;14.13;;
75261;SDS011;63859;51.064;4.580;2022-09-30T00:58:08;22.50;;;14.23;;
75261;SDS011;63859;51.064;4.580;2022-09-30T01:00:36;20.23;;;15.07;;
75261;SDS011;63859;51.064;4.580;2022-09-30T01:03:02;23.73;;;14.97;;
75261;SDS011;63859;51.064;4.580;2022-09-30T01:05:29;19.17;;;14.53;;
75261;SDS011;63859;51.064;4.580;2022-09-30T01:07:57;21.10;;;14.70;;
75261;SDS011;63859;51.064;4.580;2022-09-30T01:10:26;28.53;;;15.20;;
75261;SDS011;63859;51.064;4.580;2022-09-30T01:12:51;24.90;;;16.73;;
75261;SDS011;63859;51.064;4.580;2022-09-30T01:15:18;24.70;;;16.67;;
75261;SDS011;63859;51.064;4.580;2022-09-30T01:17:50;22.43;;;16.17;;
75261;SDS011;63859;51.064;4.580;2022-09-30T01:33:21;28.93;;;17.33;;
75261;SDS011;63859;51.064;4.580;2022-09-30T01:44:41;26.83;;;19.07;;
75261;SDS011;63859;51.064;4.580;2022-09-30T01:47:16;31.03;;;19.67;;
75261;SDS011;63859;51.064;4.580;2022-09-30T01:49:56;27.43;;;19.27;;
75261;SDS011;63859;51.064;4.580;2022-09-30T01:52:34;29.13;;;20.80;;
75261;SDS011;63859;51.064;4.580;2022-09-30T02:00:37;28.23;;;20.60;;
75261;SDS011;63859;51.064;4.580;2022-09-30T02:06:14;28.30;;;19.63;;
75261;SDS011;63859;51.064;4.580;2022-09-30T02:08:52;27.50;;;19.67;;
75261;SDS011;63859;51.064;4.580;2022-09-30T02:11:27;30.80;;;20.50;;
75261;SDS011;63859;51.064;4.580;2022-09-30T02:14:09;30.30;;;20.80;;
75261;SDS011;63859;51.064;4.580;2022-09-30T02:16:57;28.37;;;19.73;;
75261;SDS011;63859;51.064;4.580;2022-09-30T02:19:37;28.87;;;19.80;;
75261;SDS011;63859;51.064;4.580;2022-09-30T02:22:19;28.70;;;19.13;;
75261;SDS011;63859;51.064;4.580;2022-09-30T02:24:51;28.20;;;20.33;;
75261;SDS011;63859;51.064;4.580;2022-09-30T02:27:23;31.10;;;20.53;;
75261;SDS011;63859;51.064;4.580;2022-09-30T02:29:57;32.43;;;21.13;;
75261;SDS011;63859;51.064;4.580;2022-09-30T02:32:37;32.47;;;21.80;;
75261;SDS011;63859;51.064;4.580;2022-09-30T02:35:48;35.33;;;20.93;;
75261;SDS011;63859;51.064;4.580;2022-09-30T02:38:17;30.80;;;19.87;;
75261;SDS011;63859;51.064;4.580;2022-09-30T02:41:19;27.97;;;19.47;;
75261;SDS011;63859;51.064;4.580;2022-09-30T02:43:44;29.87;;;19.43;;
75261;SDS011;63859;51.064;4.580;2022-09-30T02:48:47;41.37;;;21.17;;
75261;SDS011;63859;51.064;4.580;2022-09-30T02:54:13;26.33;;;18.57;;
75261;SDS011;63859;51.064;4.580;2022-09-30T02:56:54;32.20;;;20.53;;
75261;SDS011;63859;51.064;4.580;2022-09-30T02:59:42;33.23;;;20.67;;
75261;SDS011;63859;51.064;4.580;2022-09-30T03:02:10;30.20;;;20.57;;
75261;SDS011;63859;51.064;4.580;2022-09-30T03:04:36;29.23;;;19.80;;
75261;SDS011;63859;51.064;4.580;2022-09-30T03:07:05;30.70;;;20.73;;
75261;SDS011;63859;51.064;4.580;2022-09-30T03:09:33;31.17;;;20.40;;
75261;SDS011;63859;51.064;4.580;2022-09-30T03:12:01;28.70;;;18.77;;
75261;SDS011;63859;51.064;4.580;2022-09-30T03:26:55;22.00;;;15.97;;
75261;SDS011;63859;51.064;4.580;2022-09-30T03:40:02;23.50;;;16.57;;
75261;SDS011;63859;51.064;4.580;2022-09-30T03:42:44;28.43;;;17.53;;
75261;SDS011;63859;51.064;4.580;2022-09-30T03:45:19;28.60;;;16.97;;
75261;SDS011;63859;51.064;4.580;2022-09-30T03:47:54;28.23;;;16.47;;
75261;SDS011;63859;51.064;4.580;2022-09-30T03:50:25;23.63;;;16.13;;
75261;SDS011;63859;51.064;4.580;2022-09-30T03:52:53;27.87;;;17.27;;
75261;SDS011;63859;51.064;4.580;2022-09-30T03:55:19;26.67;;;16.67;;
75261;SDS011;63859;51.064;4.580;2022-09-30T03:57:47;28.07;;;17.03;;
75261;SDS011;63859;51.064;4.580;2022-09-30T04:00:14;27.23;;;16.80;;
75261;SDS011;63859;51.064;4.580;2022-09-30T04:02:39;28.07;;;17.47;;
75261;SDS011;63859;51.064;4.580;2022-09-30T04:05:06;28.13;;;16.60;;
75261;SDS011;63859;51.064;4.580;2022-09-30T04:07:32;27.33;;;16.90;;
75261;SDS011;63859;51.064;4.580;2022-09-30T04:09:58;30.10;;;16.80;;
75261;SDS011;63859;51.064;4.580;2022-09-30T04:12:24;28.73;;;17.60;;
75261;SDS011;63859;51.064;4.580;2022-09-30T04:14:50;25.43;;;16.33;;
75261;SDS011;63859;51.064;4.580;2022-09-30T04:17:16;28.83;;;17.13;;
75261;SDS011;63859;51.064;4.580;2022-09-30T04:19:42;28.63;;;16.93;;
75261;SDS011;63859;51.064;4.580;2022-09-30T04:22:07;29.73;;;17.33;;
75261;SDS011;63859;51.064;4.580;2022-09-30T04:24:34;24.60;;;16.90;;
75261;SDS011;63859;51.064;4.580;2022-09-30T04:27:00;26.97;;;17.90;;
75261;SDS011;63859;51.064;4.580;2022-09-30T04:29:26;28.27;;;17.07;;
75261;SDS011;63859;51.064;4.580;2022-09-30T04:31:51;30.60;;;17.93;;
75261;SDS011;63859;51.064;4.580;2022-09-30T04:34:17;27.03;;;17.03;;
75261;SDS011;63859;51.064;4.580;2022-09-30T04:36:42;38.97;;;21.53;;
75261;SDS011;63859;51.064;4.580;2022-09-30T04:39:08;34.17;;;19.67;;
75261;SDS011;63859;51.064;4.580;2022-09-30T04:41:34;30.10;;;19.07;;
75261;SDS011;63859;51.064;4.580;2022-09-30T04:44:00;35.83;;;20.63;;
75261;SDS011;63859;51.064;4.580;2022-09-30T04:46:30;32.87;;;20.23;;
75261;SDS011;63859;51.064;4.580;2022-09-30T04:48:57;29.63;;;19.77;;
75261;SDS011;63859;51.064;4.580;2022-09-30T04:51:23;34.60;;;20.50;;
75261;SDS011;63859;51.064;4.580;2022-09-30T04:53:49;32.93;;;19.07;;
75261;SDS011;63859;51.064;4.580;2022-09-30T04:56:15;36.30;;;20.90;;
75261;SDS011;63859;51.064;4.580;2022-09-30T04:58:41;33.17;;;20.20;;
75261;SDS011;63859;51.064;4.580;2022-09-30T05:01:09;36.60;;;19.77;;
75261;SDS011;63859;51.064;4.580;2022-09-30T05:03:36;29.73;;;19.23;;
75261;SDS011;63859;51.064;4.580;2022-09-30T05:06:03;30.37;;;18.47;;
75261;SDS011;63859;51.064;4.580;2022-09-30T05:08:30;30.07;;;19.57;;
75261;SDS011;63859;51.064;4.580;2022-09-30T05:10:59;30.73;;;18.57;;
75261;SDS011;63859;51.064;4.580;2022-09-30T05:13:34;30.70;;;19.13;;
75261;SDS011;63859;51.064;4.580;2022-09-30T05:16:02;34.73;;;19.57;;
75261;SDS011;63859;51.064;4.580;2022-09-30T05:18:28;30.60;;;19.00;;
75261;SDS011;63859;51.064;4.580;2022-09-30T05:20:55;30.10;;;19.43;;
75261;SDS011;63859;51.064;4.580;2022-09-30T05:23:22;34.43;;;19.77;;
75261;SDS011;63859;51.064;4.580;2022-09-30T05:25:49;29.50;;;19.63;;
75261;SDS011;63859;51.064;4.580;2022-09-30T05:28:15;36.57;;;19.73;;
75261;SDS011;63859;51.064;4.580;2022-09-30T05:30:42;34.30;;;20.77;;
75261;SDS011;63859;51.064;4.580;2022-09-30T05:33:09;36.23;;;19.37;;
75261;SDS011;63859;51.064;4.580;2022-09-30T05:35:37;32.07;;;20.10;;
75261;SDS011;63859;51.064;4.580;2022-09-30T05:38:05;35.13;;;21.13;;
75261;SDS011;63859;51.064;4.580;2022-09-30T05:40:31;31.87;;;21.33;;
75261;SDS011;63859;51.064;4.580;2022-09-30T05:42:57;36.03;;;20.73;;
75261;SDS011;63859;51.064;4.580;2022-09-30T05:45:23;31.50;;;20.87;;
75261;SDS011;63859;51.064;4.580;2022-09-30T05:47:50;34.73;;;19.93;;
75261;SDS011;63859;51.064;4.580;2022-09-30T05:50:19;36.23;;;20.63;;
75261;SDS011;63859;51.064;4.580;2022-09-30T05:52:46;39.70;;;22.43;;
75261;SDS011;63859;51.064;4.580;2022-09-30T05:55:13;40.70;;;21.97;;
75261;SDS011;63859;51.064;4.580;2022-09-30T05:57:38;34.57;;;20.93;;
75261;SDS011;63859;51.064;4.580;2022-09-30T06:00:04;33.47;;;20.33;;
75261;SDS011;63859;51.064;4.580;2022-09-30T06:02:30;32.30;;;20.60;;
75261;SDS011;63859;51.064;4.580;2022-09-30T06:04:57;39.80;;;21.27;;
75261;SDS011;63859;51.064;4.580;2022-09-30T06:07:23;43.07;;;23.13;;
75261;SDS011;63859;51.064;4.580;2022-09-30T06:09:48;37.07;;;22.07;;
75261;SDS011;63859;51.064;4.580;2022-09-30T06:12:14;44.07;;;22.57;;
75261;SDS011;63859;51.064;4.580;2022-09-30T06:14:40;36.07;;;21.97;;
75261;SDS011;63859;51.064;4.580;2022-09-30T06:17:06;40.43;;;22.53;;
75261;SDS011;63859;51.064;4.580;2022-09-30T06:19:31;45.17;;;22.23;;
75261;SDS011;63859;51.064;4.580;2022-09-30T06:21:57;37.77;;;22.57;;
75261;SDS011;63859;51.064;4.580;2022-09-30T06:24:23;43.07;;;22.17;;
75261;SDS011;63859;51.064;4.580;2022-09-30T06:26:49;51.60;;;23.80;;
75261;SDS011;63859;51.064;4.580;2022-09-30T06:29:15;35.50;;;20.80;;
75261;SDS011;63859;51.064;4.580;2022-09-30T06:31:40;34.67;;;20.53;;
75261;SDS011;63859;51.064;4.580;2022-09-30T06:34:06;35.60;;;20.23;;
75261;SDS011;63859;51.064;4.580;2022-09-30T06:36:32;31.87;;;20.20;;
75261;SDS011;63859;51.064;4.580;2022-09-30T06:38:59;29.43;;;19.83;;
75261;SDS011;63859;51.064;4.580;2022-09-30T06:41:25;36.87;;;20.27;;
75261;SDS011;63859;51.064;4.580;2022-09-30T06:43:51;33.83;;;19.80;;
75261;SDS011;63859;51.064;4.580;2022-09-30T06:46:17;32.33;;;19.30;;
75261;SDS011;63859;51.064;4.580;2022-09-30T06:48:42;33.73;;;20.00;;
75261;SDS011;63859;51.064;4.580;2022-09-30T06:51:08;34.80;;;21.27;;
75261;SDS011;63859;51.064;4.580;2022-09-30T06:53:35;29.97;;;20.27;;
75261;SDS011;63859;51.064;4.580;2022-09-30T06:56:01;35.67;;;21.83;;
75261;SDS011;63859;51.064;4.580;2022-09-30T06:58:27;36.10;;;22.00;;
75261;SDS011;63859;51.064;4.580;2022-09-30T07:00:59;35.67;;;21.83;;
75261;SDS011;63859;51.064;4.580;2022-09-30T07:03:30;39.40;;;24.67;;
75261;SDS011;63859;51.064;4.580;2022-09-30T07:05:58;40.13;;;24.30;;
75261;SDS011;63859;51.064;4.580;2022-09-30T07:08:26;40.97;;;24.77;;
75261;SDS011;63859;51.064;4.580;2022-09-30T07:10:59;40.10;;;24.90;;
75261;SDS011;63859;51.064;4.580;2022-09-30T07:13:29;39.63;;;27.07;;
75261;SDS011;63859;51.064;4.580;2022-09-30T07:15:57;42.90;;;27.43;;
75261;SDS011;63859;51.064;4.580;2022-09-30T07:18:23;43.83;;;27.87;;
75261;SDS011;63859;51.064;4.580;2022-09-30T07:20:52;48.03;;;28.33;;
75261;SDS011;63859;51.064;4.580;2022-09-30T07:23:19;52.90;;;29.40;;
75261;SDS011;63859;51.064;4.580;2022-09-30T07:25:55;61.27;;;30.70;;
75261;SDS011;63859;51.064;4.580;2022-09-30T07:28:23;47.73;;;29.70;;
75261;SDS011;63859;51.064;4.580;2022-09-30T07:30:55;48.43;;;29.63;;
75261;SDS011;63859;51.064;4.580;2022-09-30T07:33:22;45.73;;;30.17;;
75261;SDS011;63859;51.064;4.580;2022-09-30T07:35:53;54.80;;;31.27;;
75261;SDS011;63859;51.064;4.580;2022-09-30T07:38:21;51.23;;;31.50;;
75261;SDS011;63859;51.064;4.580;2022-09-30T07:43:26;53.57;;;32.57;;
75261;SDS011;63859;51.064;4.580;2022-09-30T07:46:22;56.97;;;33.40;;
75261;SDS011;63859;51.064;4.580;2022-09-30T07:48:51;55.07;;;33.53;;
75261;SDS011;63859;51.064;4.580;2022-09-30T07:51:21;55.33;;;33.50;;
75261;SDS011;63859;51.064;4.580;2022-09-30T07:53:54;53.40;;;32.57;;
75261;SDS011;63859;51.064;4.580;2022-09-30T07:56:22;59.50;;;33.20;;
75261;SDS011;63859;51.064;4.580;2022-09-30T07:58:52;53.10;;;32.00;;
75261;SDS011;63859;51.064;4.580;2022-09-30T08:01:19;55.83;;;32.00;;
75261;SDS011;63859;51.064;4.580;2022-09-30T08:03:45;56.17;;;32.43;;
75261;SDS011;63859;51.064;4.580;2022-09-30T08:06:12;49.23;;;31.23;;
75261;SDS011;63859;51.064;4.580;2022-09-30T08:08:39;49.97;;;30.77;;
75261;SDS011;63859;51.064;4.580;2022-09-30T08:11:07;47.83;;;28.93;;
75261;SDS011;63859;51.064;4.580;2022-09-30T08:13:34;44.10;;;28.33;;
75261;SDS011;63859;51.064;4.580;2022-09-30T08:15:59;50.33;;;29.00;;
75261;SDS011;63859;51.064;4.580;2022-09-30T08:18:26;51.23;;;29.50;;
75261;SDS011;63859;51.064;4.580;2022-09-30T08:20:52;46.67;;;27.73;;
75261;SDS011;63859;51.064;4.580;2022-09-30T08:23:17;36.03;;;26.63;;
75261;SDS011;63859;51.064;4.580;2022-09-30T08:25:43;44.17;;;28.43;;
75261;SDS011;63859;51.064;4.580;2022-09-30T08:28:09;45.60;;;27.03;;
75261;SDS011;63859;51.064;4.580;2022-09-30T08:30:35;46.63;;;27.73;;
75261;SDS011;63859;51.064;4.580;2022-09-30T08:33:01;44.90;;;26.80;;
75261;SDS011;63859;51.064;4.580;2022-09-30T08:35:27;42.33;;;27.40;;
75261;SDS011;63859;51.064;4.580;2022-09-30T08:37:52;49.07;;;25.47;;
75261;SDS011;63859;51.064;4.580;2022-09-30T08:40:25;37.33;;;24.73;;
75261;SDS011;63859;51.064;4.580;2022-09-30T08:51:25;33.47;;;21.00;;
75261;SDS011;63859;51.064;4.580;2022-09-30T08:54:09;34.63;;;20.80;;
75261;SDS011;63859;51.064;4.580;2022-09-30T08:56:39;32.20;;;20.13;;
75261;SDS011;63859;51.064;4.580;2022-09-30T08:59:50;39.93;;;19.80;;
75261;SDS011;63859;51.064;4.580;2022-09-30T09:02:00;29.10;;;17.43;;
75261;SDS011;63859;51.064;4.580;2022-09-30T09:04:45;30.30;;;18.03;;
75261;SDS011;63859;51.064;4.580;2022-09-30T09:12:15;25.40;;;14.63;;
75261;SDS011;63859;51.064;4.580;2022-09-30T09:17:52;24.33;;;15.83;;
75261;SDS011;63859;51.064;4.580;2022-09-30T09:20:36;30.90;;;14.53;;
75261;SDS011;63859;51.064;4.580;2022-09-30T09:23:08;20.97;;;13.37;;
75261;SDS011;63859;51.064;4.580;2022-09-30T09:25:35;23.90;;;13.50;;
75261;SDS011;63859;51.064;4.580;2022-09-30T09:28:02;20.10;;;12.40;;
75261;SDS011;63859;51.064;4.580;2022-09-30T09:30:40;20.40;;;12.37;;
75261;SDS011;63859;51.064;4.580;2022-09-30T09:33:19;20.27;;;10.97;;
75261;SDS011;63859;51.064;4.580;2022-09-30T09:36:07;20.67;;;11.50;;
75261;SDS011;63859;51.064;4.580;2022-09-30T09:47:08;21.97;;;9.90;;
75261;SDS011;63859;51.064;4.580;2022-09-30T09:49:42;22.13;;;11.00;;
75261;SDS011;63859;51.064;4.580;2022-09-30T09:54:38;30.53;;;10.77;;
75261;SDS011;63859;51.064;4.580;2022-09-30T09:57:06;19.25;;;9.27;;
75261;SDS011;63859;51.064;4.580;2022-09-30T09:59:37;17.07;;;9.37;;
75261;SDS011;63859;51.064;4.580;2022-09-30T10:02:27;32.25;;;10.15;;
75261;SDS011;63859;51.064;4.580;2022-09-30T10:04:55;15.93;;;8.30;;
75261;SDS011;63859;51.064;4.580;2022-09-30T10:07:26;18.85;;;7.80;;
75261;SDS011;63859;51.064;4.580;2022-09-30T10:10:07;10.98;;;6.68;;
75261;SDS011;63859;51.064;4.580;2022-09-30T10:12:43;10.25;;;6.35;;
75261;SDS011;63859;51.064;4.580;2022-09-30T10:15:19;16.55;;;5.07;;
75261;SDS011;63859;51.064;4.580;2022-09-30T10:17:54;8.25;;;4.60;;
75261;SDS011;63859;51.064;4.580;2022-09-30T10:20:25;9.77;;;4.45;;
75261;SDS011;63859;51.064;4.580;2022-09-30T10:22:59;7.85;;;4.03;;
75261;SDS011;63859;51.064;4.580;2022-09-30T10:25:27;9.00;;;3.63;;
75261;SDS011;63859;51.064;4.580;2022-09-30T10:27:57;7.43;;;3.60;;
75261;SDS011;63859;51.064;4.580;2022-09-30T10:30:44;9.55;;;3.03;;
75261;SDS011;63859;51.064;4.580;2022-09-30T10:35:51;4.85;;;2.75;;
75261;SDS011;63859;51.064;4.580;2022-09-30T10:38:24;11.65;;;2.90;;
75261;SDS011;63859;51.064;4.580;2022-09-30T10:40:53;4.82;;;3.00;;
75261;SDS011;63859;51.064;4.580;2022-09-30T10:43:22;5.93;;;2.80;;
75261;SDS011;63859;51.064;4.580;2022-09-30T10:45:55;5.40;;;3.10;;
75261;SDS011;63859;51.064;4.580;2022-09-30T10:48:23;6.60;;;3.55;;
75261;SDS011;63859;51.064;4.580;2022-09-30T10:50:52;8.73;;;3.70;;
75261;SDS011;63859;51.064;4.580;2022-09-30T10:53:24;7.72;;;3.55;;
75261;SDS011;63859;51.064;4.580;2022-09-30T10:55:53;7.38;;;3.47;;
75261;SDS011;63859;51.064;4.580;2022-09-30T11:00:49;6.22;;;3.72;;
75261;SDS011;63859;51.064;4.580;2022-09-30T11:03:20;9.68;;;4.10;;
75261;SDS011;63859;51.064;4.580;2022-09-30T11:05:51;7.57;;;4.22;;
75261;SDS011;63859;51.064;4.580;2022-09-30T11:08:25;8.95;;;4.25;;
75261;SDS011;63859;51.064;4.580;2022-09-30T11:13:36;8.32;;;3.97;;
75261;SDS011;63859;51.064;4.580;2022-09-30T11:16:11;7.80;;;4.32;;
75261;SDS011;63859;51.064;4.580;2022-09-30T11:18:58;12.63;;;4.40;;
75261;SDS011;63859;51.064;4.580;2022-09-30T11:24:13;5.60;;;3.47;;
75261;SDS011;63859;51.064;4.580;2022-09-30T11:29:37;5.32;;;3.50;;
75261;SDS011;63859;51.064;4.580;2022-09-30T11:32:08;8.35;;;3.15;;
75261;SDS011;63859;51.064;4.580;2022-09-30T11:43:36;6.05;;;3.33;;
75261;SDS011;63859;51.064;4.580;2022-09-30T11:57:21;6.60;;;3.20;;
75261;SDS011;63859;51.064;4.580;2022-09-30T12:00:11;4.68;;;2.30;;
75261;SDS011;63859;51.064;4.580;2022-09-30T12:02:44;5.82;;;2.40;;
75261;SDS011;63859;51.064;4.580;2022-09-30T12:05:22;9.77;;;2.85;;
75261;SDS011;63859;51.064;4.580;2022-09-30T12:07:51;6.43;;;3.10;;
75261;SDS011;63859;51.064;4.580;2022-09-30T12:10:38;7.82;;;3.00;;
75261;SDS011;63859;51.064;4.580;2022-09-30T12:13:16;4.57;;;2.33;;
75261;SDS011;63859;51.064;4.580;2022-09-30T12:15:47;4.38;;;2.90;;
75261;SDS011;63859;51.064;4.580;2022-09-30T12:18:18;5.53;;;2.70;;
75261;SDS011;63859;51.064;4.580;2022-09-30T12:20:50;3.22;;;2.40;;
75261;SDS011;63859;51.064;4.580;2022-09-30T12:23:30;3.75;;;2.72;;
75261;SDS011;63859;51.064;4.580;2022-09-30T12:26:04;3.42;;;2.95;;
75261;SDS011;63859;51.064;4.580;2022-09-30T12:28:41;10.30;;;3.53;;
75261;SDS011;63859;51.064;4.580;2022-09-30T12:37:15;4.72;;;3.08;;
75261;SDS011;63859;51.064;4.580;2022-09-30T12:48:19;6.53;;;3.67;;
75261;SDS011;63859;51.064;4.580;2022-09-30T12:50:48;6.35;;;3.40;;
75261;SDS011;63859;51.064;4.580;2022-09-30T12:53:24;4.63;;;3.67;;
75261;SDS011;63859;51.064;4.580;2022-09-30T12:55:53;7.07;;;3.22;;
75261;SDS011;63859;51.064;4.580;2022-09-30T12:58:26;7.13;;;3.50;;
75261;SDS011;63859;51.064;4.580;2022-09-30T13:06:25;7.10;;;3.55;;
75261;SDS011;63859;51.064;4.580;2022-09-30T13:09:21;9.52;;;3.22;;
75261;SDS011;63859;51.064;4.580;2022-09-30T13:14:22;4.38;;;3.33;;
75261;SDS011;63859;51.064;4.580;2022-09-30T13:16:59;4.82;;;3.10;;
75261;SDS011;63859;51.064;4.580;2022-09-30T13:19:34;7.45;;;3.70;;
75261;SDS011;63859;51.064;4.580;2022-09-30T13:27:35;8.05;;;3.30;;
75261;SDS011;63859;51.064;4.580;2022-09-30T13:32:45;4.68;;;3.13;;
75261;SDS011;63859;51.064;4.580;2022-09-30T13:40:44;4.18;;;2.95;;
75261;SDS011;63859;51.064;4.580;2022-09-30T13:43:13;4.80;;;3.13;;
75261;SDS011;63859;51.064;4.580;2022-09-30T13:46:06;4.78;;;2.80;;
75261;SDS011;63859;51.064;4.580;2022-09-30T13:48:35;10.35;;;3.50;;
75261;SDS011;63859;51.064;4.580;2022-09-30T13:51:11;7.65;;;3.53;;
75261;SDS011;63859;51.064;4.580;2022-09-30T13:56:28;5.95;;;3.17;;
75261;SDS011;63859;51.064;4.580;2022-09-30T13:59:06;4.60;;;3.00;;
75261;SDS011;63859;51.064;4.580;2022-09-30T14:10:30;5.97;;;3.20;;
75261;SDS011;63859;51.064;4.580;2022-09-30T14:24:13;6.82;;;3.80;;
75261;SDS011;63859;51.064;4.580;2022-09-30T14:26:52;7.25;;;3.50;;
75261;SDS011;63859;51.064;4.580;2022-09-30T14:33:08;7.50;;;3.13;;
75261;SDS011;63859;51.064;4.580;2022-09-30T14:35:24;4.85;;;3.30;;
75261;SDS011;63859;51.064;4.580;2022-09-30T14:40:31;6.93;;;3.80;;
75261;SDS011;63859;51.064;4.580;2022-09-30T14:43:03;8.25;;;3.80;;
75261;SDS011;63859;51.064;4.580;2022-09-30T14:45:32;9.15;;;3.60;;
75261;SDS011;63859;51.064;4.580;2022-09-30T14:48:01;5.18;;;3.80;;
75261;SDS011;63859;51.064;4.580;2022-09-30T14:50:34;9.73;;;3.88;;
75261;SDS011;63859;51.064;4.580;2022-09-30T14:53:04;4.45;;;3.28;;
75261;SDS011;63859;51.064;4.580;2022-09-30T14:55:30;6.40;;;3.03;;
75261;SDS011;63859;51.064;4.580;2022-09-30T14:58:13;5.72;;;2.90;;
75261;SDS011;63859;51.064;4.580;2022-09-30T15:03:52;4.90;;;3.10;;
75261;SDS011;63859;51.064;4.580;2022-09-30T15:06:22;7.97;;;2.88;;
75261;SDS011;63859;51.064;4.580;2022-09-30T15:11:56;3.38;;;2.60;;
75261;SDS011;63859;51.064;4.580;2022-09-30T15:14:31;4.32;;;2.78;;
75261;SDS011;63859;51.064;4.580;2022-09-30T15:16:57;5.55;;;3.10;;
75261;SDS011;63859;51.064;4.580;2022-09-30T15:19:28;5.95;;;3.10;;
75261;SDS011;63859;51.064;4.580;2022-09-30T15:21:59;4.88;;;2.70;;
75261;SDS011;63859;51.064;4.580;2022-09-30T15:24:27;5.78;;;2.72;;
75261;SDS011;63859;51.064;4.580;2022-09-30T15:26:56;5.78;;;2.72;;
75261;SDS011;63859;51.064;4.580;2022-09-30T15:29:23;4.47;;;2.85;;
75261;SDS011;63859;51.064;4.580;2022-09-30T15:31:55;4.97;;;2.83;;
75261;SDS011;63859;51.064;4.580;2022-09-30T15:34:26;9.52;;;2.67;;
75261;SDS011;63859;51.064;4.580;2022-09-30T15:36:59;3.90;;;2.25;;
75261;SDS011;63859;51.064;4.580;2022-09-30T15:39:36;4.00;;;2.70;;
75261;SDS011;63859;51.064;4.580;2022-09-30T15:42:34;7.30;;;2.42;;
75261;SDS011;63859;51.064;4.580;2022-09-30T15:50:42;5.45;;;2.75;;
75261;SDS011;63859;51.064;4.580;2022-09-30T15:53:14;2.53;;;2.33;;
75261;SDS011;63859;51.064;4.580;2022-09-30T15:55:48;4.88;;;2.47;;
75261;SDS011;63859;51.064;4.580;2022-09-30T16:03:37;2.85;;;2.00;;
75261;SDS011;63859;51.064;4.580;2022-09-30T16:06:04;8.20;;;2.40;;
75261;SDS011;63859;51.064;4.580;2022-09-30T16:08:40;6.32;;;2.63;;
75261;SDS011;63859;51.064;4.580;2022-09-30T16:11:08;3.92;;;2.53;;
75261;SDS011;63859;51.064;4.580;2022-09-30T16:13:41;6.70;;;2.58;;
75261;SDS011;63859;51.064;4.580;2022-09-30T16:16:13;2.70;;;2.30;;
75261;SDS011;63859;51.064;4.580;2022-09-30T16:18:45;3.67;;;2.35;;
75261;SDS011;63859;51.064;4.580;2022-09-30T16:21:26;8.73;;;2.60;;
75261;SDS011;63859;51.064;4.580;2022-09-30T16:23:52;7.28;;;2.95;;
75261;SDS011;63859;51.064;4.580;2022-09-30T16:26:19;7.40;;;2.50;;
75261;SDS011;63859;51.064;4.580;2022-09-30T16:28:52;5.05;;;2.63;;
75261;SDS011;63859;51.064;4.580;2022-09-30T16:31:20;3.33;;;2.10;;
75261;SDS011;63859;51.064;4.580;2022-09-30T16:33:49;5.15;;;2.47;;
75261;SDS011;63859;51.064;4.580;2022-09-30T16:36:14;3.00;;;2.60;;
75261;SDS011;63859;51.064;4.580;2022-09-30T16:38:40;4.00;;;2.58;;
75261;SDS011;63859;51.064;4.580;2022-09-30T16:41:10;4.53;;;2.67;;
75261;SDS011;63859;51.064;4.580;2022-09-30T16:43:36;5.05;;;2.95;;
75261;SDS011;63859;51.064;4.580;2022-09-30T16:46:03;10.95;;;5.38;;
75261;SDS011;63859;51.064;4.580;2022-09-30T16:48:29;4.03;;;3.03;;
75261;SDS011;63859;51.064;4.580;2022-09-30T16:51:12;5.78;;;3.40;;
75261;SDS011;63859;51.064;4.580;2022-09-30T16:53:39;4.97;;;3.42;;
75261;SDS011;63859;51.064;4.580;2022-09-30T16:56:05;4.15;;;2.40;;
75261;SDS011;63859;51.064;4.580;2022-09-30T16:58:37;5.78;;;2.63;;
75261;SDS011;63859;51.064;4.580;2022-09-30T17:01:03;4.22;;;2.72;;
75261;SDS011;63859;51.064;4.580;2022-09-30T17:03:28;9.02;;;3.03;;
75261;SDS011;63859;51.064;4.580;2022-09-30T17:05:55;3.60;;;2.80;;
75261;SDS011;63859;51.064;4.580;2022-09-30T17:08:20;4.35;;;2.60;;
75261;SDS011;63859;51.064;4.580;2022-09-30T17:10:48;6.05;;;3.00;;
75261;SDS011;63859;51.064;4.580;2022-09-30T17:13:14;5.63;;;2.63;;
75261;SDS011;63859;51.064;4.580;2022-09-30T17:15:41;2.72;;;2.33;;
75261;SDS011;63859;51.064;4.580;2022-09-30T17:18:10;3.08;;;2.40;;
75261;SDS011;63859;51.064;4.580;2022-09-30T17:20:36;4.10;;;2.60;;
75261;SDS011;63859;51.064;4.580;2022-09-30T17:23:06;4.65;;;2.65;;
75261;SDS011;63859;51.064;4.580;2022-09-30T17:25:31;3.78;;;2.70;;
75261;SDS011;63859;51.064;4.580;2022-09-30T17:27:57;6.00;;;2.42;;
75261;SDS011;63859;51.064;4.580;2022-09-30T17:30:23;7.20;;;2.40;;
75261;SDS011;63859;51.064;4.580;2022-09-30T17:32:48;4.82;;;2.70;;
75261;SDS011;63859;51.064;4.580;2022-09-30T17:35:16;7.57;;;3.35;;
75261;SDS011;63859;51.064;4.580;2022-09-30T17:37:41;7.05;;;2.50;;
75261;SDS011;63859;51.064;4.580;2022-09-30T17:40:09;5.38;;;2.97;;
75261;SDS011;63859;51.064;4.580;2022-09-30T17:42:53;5.03;;;2.60;;
75261;SDS011;63859;51.064;4.580;2022-09-30T17:45:37;6.15;;;2.65;;
75261;SDS011;63859;51.064;4.580;2022-09-30T17:48:05;4.35;;;2.55;;
75261;SDS011;63859;51.064;4.580;2022-09-30T17:50:33;5.38;;;2.78;;
75261;SDS011;63859;51.064;4.580;2022-09-30T17:53:00;9.80;;;2.63;;
75261;SDS011;63859;51.064;4.580;2022-09-30T17:55:26;3.65;;;2.30;;
75261;SDS011;63859;51.064;4.580;2022-09-30T17:57:53;5.10;;;2.80;;
75261;SDS011;63859;51.064;4.580;2022-09-30T18:00:19;4.82;;;2.42;;
75261;SDS011;63859;51.064;4.580;2022-09-30T18:02:45;3.90;;;2.70;;
75261;SDS011;63859;51.064;4.580;2022-09-30T18:05:12;2.95;;;2.40;;
75261;SDS011;63859;51.064;4.580;2022-09-30T18:07:38;9.57;;;2.92;;
75261;SDS011;63859;51.064;4.580;2022-09-30T18:10:04;8.30;;;2.80;;
75261;SDS011;63859;51.064;4.580;2022-09-30T18:12:32;5.88;;;2.58;;
75261;SDS011;63859;51.064;4.580;2022-09-30T18:14:58;6.47;;;2.67;;
75261;SDS011;63859;51.064;4.580;2022-09-30T18:17:23;4.35;;;2.75;;
75261;SDS011;63859;51.064;4.580;2022-09-30T18:19:49;5.97;;;2.72;;
75261;SDS011;63859;51.064;4.580;2022-09-30T18:22:15;5.75;;;2.95;;
75261;SDS011;63859;51.064;4.580;2022-09-30T18:24:40;5.55;;;2.90;;